createdAt,value
2022-09-03T00:00:51.985Z,44.2890625
2022-09-03T00:01:49.361Z,44.85058594
2022-09-03T00:02:48.778Z,44.31542969
2022-09-03T00:03:45.016Z,45.13085938
2022-09-03T00:04:45.145Z,44.96679688
2022-09-03T00:06:44.316Z,44.859375
2022-09-03T00:07:38.712Z,44.9140625
2022-09-03T00:08:40.770Z,45.06347656
2022-09-03T00:09:33.792Z,45.02832031
2022-09-03T00:11:33.508Z,44.13867188
2022-09-03T00:12:30.760Z,45.265625
2022-09-03T00:13:33.037Z,45.49414063
2022-09-03T00:14:33.762Z,45.63085938
2022-09-03T00:15:37.548Z,44.61914063
2022-09-03T00:16:36.605Z,43.98828125
2022-09-03T00:17:35.760Z,45.40039063
2022-09-03T00:18:44.603Z,44.2578125
2022-09-03T00:19:40.723Z,44.95703125
2022-09-03T00:21:42.481Z,44.6640625
2022-09-03T00:22:46.368Z,43.65722656
2022-09-03T00:23:40.627Z,45.65039063
2022-09-03T00:24:40.834Z,45.234375
2022-09-03T00:25:36.501Z,44.37011719
2022-09-03T00:26:40.495Z,45.99121094
2022-09-03T00:27:37.648Z,46
2022-09-03T00:28:38.145Z,45.76757813
2022-09-03T00:29:34.333Z,46.02050781
2022-09-03T00:31:35.543Z,46.19042969
2022-09-03T00:32:39.388Z,46.24511719
2022-09-03T00:33:33.680Z,44.5859375
2022-09-03T00:34:34.373Z,45.93359375
2022-09-03T00:35:28.623Z,45.94921875
2022-09-03T00:36:31.757Z,46.33984375
2022-09-03T00:37:23.696Z,45.15039063
2022-09-03T00:38:24.722Z,45.89941406
2022-09-03T00:39:19.369Z,44.59667969
2022-09-03T00:40:21.616Z,45.96777344
2022-09-03T00:41:15.945Z,45.43847656
2022-09-03T00:42:20.261Z,45.78125
2022-09-03T00:43:18.349Z,45.78125
2022-09-03T00:45:03.786Z,45.75195313
2022-09-03T00:45:49.185Z,45.65527344
2022-09-03T00:46:46.350Z,45.63476563
2022-09-03T00:47:49.916Z,45.75878906
2022-09-03T00:48:58.039Z,45.05273438
2022-09-03T00:50:00.454Z,44.65820313
2022-09-03T00:51:56.957Z,43.9921875
2022-09-03T00:52:55.254Z,44.16308594
2022-09-03T00:53:57.801Z,44.66894531
2022-09-03T00:54:52.250Z,44.97851563
2022-09-03T00:55:51.371Z,45.12109375
2022-09-03T00:56:49.350Z,45.14160156
2022-09-03T00:57:49.754Z,44.58886719
2022-09-03T00:58:46.796Z,44.42480469
2022-09-03T00:59:49.517Z,43.95214844
2022-09-03T01:00:46.287Z,44.01171875
2022-09-03T01:01:48.868Z,43.72167969
2022-09-03T01:02:45.667Z,43.55859375
2022-09-03T01:03:54.963Z,43.39453125
2022-09-03T01:04:50.208Z,43.76367188
2022-09-03T01:05:45.554Z,43.8125
2022-09-03T01:06:54.277Z,43.55957031
2022-09-03T01:07:50.008Z,43.75585938
2022-09-03T01:08:47.448Z,43.88476563
2022-09-03T01:09:46.794Z,43.74707031
2022-09-03T01:10:44.069Z,44.41796875
2022-09-03T01:11:45.670Z,43.94628906
2022-09-03T01:12:38.201Z,43.88867188
2022-09-03T01:13:43.667Z,43.83105469
2022-09-03T01:14:36.343Z,44.12988281
2022-09-03T01:15:38.649Z,43.87890625
2022-09-03T01:16:33.099Z,44.52441406
2022-09-03T01:17:36.606Z,43.97070313
2022-09-03T01:18:33.013Z,44.20117188
2022-09-03T01:19:41.751Z,43.94628906
2022-09-03T01:21:29.256Z,44.17285156
2022-09-03T01:22:08.899Z,44.73242188
2022-09-03T01:23:13.142Z,44.12011719
2022-09-03T01:24:07.837Z,43.38671875
2022-09-03T01:25:10.036Z,43.41015625
2022-09-03T01:26:07.437Z,43.98730469
2022-09-03T01:27:04.819Z,44.16992188
2022-09-03T01:28:07.916Z,43.47558594
2022-09-03T01:29:09.283Z,43.26464844
2022-09-03T01:30:08.796Z,43.27539063
2022-09-03T01:31:06.585Z,43.07910156
2022-09-03T01:32:14.852Z,43.60253906
2022-09-03T01:33:07.253Z,43.43945313
2022-09-03T01:34:07.726Z,43.91308594
2022-09-03T01:35:06.883Z,44.29296875
2022-09-03T01:37:05.531Z,43.54003906
2022-09-03T01:38:09.464Z,43.54980469
2022-09-03T01:39:01.812Z,43.44628906
2022-09-03T01:40:04.415Z,43.96582031
2022-09-03T01:40:56.690Z,43.66894531
2022-09-03T01:41:55.661Z,44.05957031
2022-09-03T01:42:50.934Z,43.48339844
2022-09-03T01:43:53.194Z,43.81738281
2022-09-03T01:44:56.950Z,43.5625
2022-09-03T01:45:57.662Z,43.36328125
2022-09-03T01:46:58.925Z,43.28125
2022-09-03T01:47:51.999Z,43.80273438
2022-09-03T01:49:37.299Z,43.08203125
2022-09-03T01:51:32.334Z,43.1953125
2022-09-03T01:52:39.416Z,43.62011719
2022-09-03T01:53:35.866Z,43.53710938
2022-09-03T01:54:40.720Z,44.06347656
2022-09-03T01:55:32.978Z,43.90332031
2022-09-03T01:56:35.106Z,43.671875
2022-09-03T01:57:35.305Z,44.39746094
2022-09-03T01:58:34.453Z,43.54199219
2022-09-03T01:59:29.066Z,43.41699219
2022-09-03T02:00:28.592Z,44.07421875
2022-09-03T02:01:24.522Z,44.41699219
2022-09-03T02:02:25.808Z,44.16210938
2022-09-03T02:03:32.026Z,44.484375
2022-09-03T02:03:57.056Z,43.88378906
2022-09-03T02:04:52.725Z,43.79101563
2022-09-03T02:05:56.761Z,43.48339844
2022-09-03T02:06:52.929Z,44.6796875
2022-09-03T02:07:54.147Z,43.61816406
2022-09-03T02:08:50.795Z,44.45703125
2022-09-03T02:09:54.591Z,43.97265625
2022-09-03T02:10:50.032Z,43.67382813
2022-09-03T02:11:51.769Z,43.80078125
2022-09-03T02:12:50.008Z,43.92480469
2022-09-03T02:13:49.154Z,43.93554688
2022-09-03T02:14:43.446Z,44.44238281
2022-09-03T02:15:47.089Z,44.56933594
2022-09-03T02:16:44.307Z,45.28417969
2022-09-03T02:17:42.858Z,45.14453125
2022-09-03T02:18:38.254Z,44.69433594
2022-09-03T02:19:40.326Z,44.12792969
2022-09-03T02:20:38.485Z,44.11914063
2022-09-03T02:21:40.218Z,45.17578125
2022-09-03T02:22:36.701Z,44.84179688
2022-09-03T02:23:36.494Z,44.24316406
2022-09-03T02:24:33.215Z,44.42480469
2022-09-03T02:25:32.861Z,44.81835938
2022-09-03T02:26:27.317Z,45.57910156
2022-09-03T02:28:17.861Z,44.25
2022-09-03T02:28:57.757Z,44.2890625
2022-09-03T02:29:56.861Z,44.48535156
2022-09-03T02:30:55.340Z,44.80859375
2022-09-03T02:31:53.704Z,44.34570313
2022-09-03T02:32:48.275Z,45.01074219
2022-09-03T02:33:48.216Z,45.37890625
2022-09-03T02:34:54.038Z,44.42382813
2022-09-03T02:35:55.465Z,45.01074219
2022-09-03T02:36:53.257Z,45.16699219
2022-09-03T02:37:51.292Z,43.94335938
2022-09-03T02:38:48.300Z,43.90429688
2022-09-03T02:39:48.038Z,44.125
2022-09-03T02:40:51.662Z,44.24023438
2022-09-03T02:41:50.867Z,45.37792969
2022-09-03T02:42:49.669Z,45.05273438
2022-09-03T02:43:45.820Z,44.1171875
2022-09-03T02:44:45.664Z,44.54101563
2022-09-03T02:45:40.213Z,45.3828125
2022-09-03T02:46:44.132Z,44.87402344
2022-09-03T02:47:38.229Z,44.74511719
2022-09-03T02:48:40.533Z,44.87011719
2022-09-03T02:49:32.982Z,44.76757813
2022-09-03T02:50:31.344Z,44.73339844
2022-09-03T02:51:33.013Z,44.765625
2022-09-03T02:52:29.992Z,44.98144531
2022-09-03T02:53:34.842Z,44.95703125
2022-09-03T02:54:33.042Z,44.82910156
2022-09-03T02:55:28.310Z,45.17675781
2022-09-03T02:56:32.332Z,45.09472656
2022-09-03T02:57:27.863Z,44.47558594
2022-09-03T02:58:25.936Z,44.67089844
2022-09-03T02:59:22.223Z,45.20019531
2022-09-03T03:00:21.332Z,45.34082031
2022-09-03T03:01:23.863Z,45.5
2022-09-03T03:02:22.080Z,45.64648438
2022-09-03T03:03:18.617Z,46.03808594
2022-09-03T03:04:18.666Z,46.00292969
2022-09-03T03:05:18.003Z,45.95605469
2022-09-03T03:06:21.819Z,45.76953125
2022-09-03T03:07:16.125Z,45.44335938
2022-09-03T03:08:42.661Z,45.82421875
2022-09-03T03:09:26.531Z,45.20507813
2022-09-03T03:10:29.300Z,45.19433594
2022-09-03T03:11:30.022Z,45.52636719
2022-09-03T03:12:28.127Z,45.05175781
2022-09-03T03:13:36.706Z,46.01660156
2022-09-03T03:14:36.848Z,46.03613281
2022-09-03T03:15:38.445Z,45.38085938
2022-09-03T03:16:36.838Z,45.74609375
2022-09-03T03:17:34.675Z,45.83496094
2022-09-03T03:18:36.794Z,46.74414063
2022-09-03T03:19:34.680Z,46.66015625
2022-09-03T03:20:36.547Z,45.77636719
2022-09-03T03:21:37.512Z,46.26953125
2022-09-03T03:22:32.876Z,45.93457031
2022-09-03T03:23:35.292Z,46.69042969
2022-09-03T03:24:34.373Z,46.15039063
2022-09-03T03:25:29.712Z,46.69238281
2022-09-03T03:26:31.508Z,47.28808594
2022-09-03T03:27:27.106Z,47.078125
2022-09-03T03:28:41.355Z,46.2734375
2022-09-03T03:29:35.749Z,46.83691406
2022-09-03T03:31:31.972Z,47.19433594
2022-09-03T03:32:35.713Z,47.08984375
2022-09-03T03:33:37.990Z,46.33789063
2022-09-03T03:34:46.556Z,47.25683594
2022-09-03T03:35:45.024Z,47.56933594
2022-09-03T03:36:44.054Z,47.42773438
2022-09-03T03:37:44.052Z,47.73632813
2022-09-03T03:38:39.129Z,47.66699219
2022-09-03T03:39:39.340Z,47.70019531
2022-09-03T03:40:37.473Z,47.8046875
2022-09-03T03:41:38.446Z,47.92871094
2022-09-03T03:42:34.952Z,48.02050781
2022-09-03T03:43:37.137Z,47.85839844
2022-09-03T03:44:38.072Z,47.81054688
2022-09-03T03:45:42.772Z,47.77734375
2022-09-03T03:46:38.529Z,47.99316406
2022-09-03T03:47:38.266Z,48.18945313
2022-09-03T03:48:40.326Z,48.02734375
2022-09-03T03:50:24.708Z,47.95214844
2022-09-03T03:51:06.606Z,47.84375
2022-09-03T03:52:03.897Z,48.19140625
2022-09-03T03:53:03.335Z,48.05175781
2022-09-03T03:54:04.357Z,47.05957031
2022-09-03T03:54:05.600Z,47.05957031
2022-09-03T03:54:59.089Z,47.54101563
2022-09-03T03:55:56.804Z,48.1171875
2022-09-03T03:56:56.597Z,48.25390625
2022-09-03T03:57:53.882Z,48.40039063
2022-09-03T03:58:50.829Z,48.05371094
2022-09-03T03:59:49.223Z,48.015625
2022-09-03T04:00:46.844Z,48.23632813
2022-09-03T04:01:45.870Z,48.57714844
2022-09-03T04:02:42.809Z,48.44042969
2022-09-03T04:03:39.918Z,48.39257813
2022-09-03T04:04:36.786Z,48.4375
2022-09-03T04:05:35.664Z,48.42675781
2022-09-03T04:06:34.510Z,48.34667969
2022-09-03T04:07:31.492Z,48.12792969
2022-09-03T04:08:28.632Z,47.99023438
2022-09-03T04:09:25.639Z,48.90917969
2022-09-03T04:10:26.976Z,48.39355469
2022-09-03T04:11:31.019Z,48.22851563
2022-09-03T04:12:34.399Z,48.14160156
2022-09-03T04:13:32.293Z,48.04296875
2022-09-03T04:14:30.714Z,48.39550781
2022-09-03T04:15:28.209Z,48.39648438
2022-09-03T04:16:26.245Z,48.39550781
2022-09-03T04:17:25.366Z,48.4609375
2022-09-03T04:18:21.240Z,48.94921875
2022-09-03T04:19:25.378Z,48.79882813
2022-09-03T04:21:19.937Z,48.76367188
2022-09-03T04:22:16.648Z,48.8515625
2022-09-03T04:23:20.060Z,48.9296875
2022-09-03T04:24:20.606Z,49.35449219
2022-09-03T04:25:17.399Z,49.49121094
2022-09-03T04:26:20.558Z,49.04296875
2022-09-03T04:27:18.803Z,49.37304688
2022-09-03T04:28:17.960Z,49.68066406
2022-09-03T04:29:16.786Z,49.30175781
2022-09-03T04:30:16.067Z,49.68066406
2022-09-03T04:32:14.692Z,49.44824219
2022-09-03T04:33:17.393Z,49.31835938
2022-09-03T04:34:29.840Z,49.70507813
2022-09-03T04:35:31.370Z,49.48535156
2022-09-03T04:36:29.403Z,49.57617188
2022-09-03T04:37:30.534Z,49.56054688
2022-09-03T04:38:27.393Z,49.60449219
2022-09-03T04:39:24.887Z,49.77636719
2022-09-03T04:41:24.314Z,49.77539063
2022-09-03T04:42:29.788Z,50.11914063
2022-09-03T04:43:27.729Z,49.94335938
2022-09-03T04:44:25.652Z,49.97460938
2022-09-03T04:45:25.591Z,49.94238281
2022-09-03T04:46:23.710Z,50.27246094
2022-09-03T04:47:20.707Z,50.16894531
2022-09-03T04:48:20.301Z,50.5234375
2022-09-03T04:49:15.156Z,50.53125
2022-09-03T04:50:15.121Z,50.50878906
2022-09-03T04:51:12.598Z,50.41699219
2022-09-03T04:52:15.248Z,50.18261719
2022-09-03T04:53:17.102Z,50.25976563
2022-09-03T04:54:19.521Z,50.31445313
2022-09-03T04:55:17.709Z,50.44140625
2022-09-03T04:56:09.658Z,50.47558594
2022-09-03T04:57:09.479Z,50.42871094
2022-09-03T04:58:08.572Z,50.52734375
2022-09-03T04:59:07.423Z,50.77636719
2022-09-03T05:00:06.454Z,50.61523438
2022-09-03T05:01:07.876Z,50.77636719
2022-09-03T05:02:00.397Z,50.55371094
2022-09-03T05:03:04.558Z,50.79199219
2022-09-03T05:03:58.798Z,50.91796875
2022-09-03T05:04:58.650Z,50.79101563
2022-09-03T05:05:52.946Z,50.79296875
2022-09-03T05:06:56.776Z,50.97167969
2022-09-03T05:07:58.515Z,50.93261719
2022-09-03T05:08:52.591Z,51.171875
2022-09-03T05:09:51.423Z,51.33398438
2022-09-03T05:11:49.464Z,51.33398438
2022-09-03T05:12:47.561Z,51.25390625
2022-09-03T05:13:48.184Z,51.42675781
2022-09-03T05:14:40.159Z,51.35742188
2022-09-03T05:15:41.969Z,51.46484375
2022-09-03T05:16:35.412Z,51.59082031
2022-09-03T05:17:37.794Z,51.36132813
2022-09-03T05:18:31.510Z,51.54492188
2022-09-03T05:19:33.224Z,51.39550781
2022-09-03T05:20:29.753Z,51.36328125
2022-09-03T05:22:07.640Z,51.71191406
2022-09-03T05:22:47.573Z,51.75
2022-09-03T05:23:49.296Z,51.28222656
2022-09-03T05:24:53.084Z,51.54589844
2022-09-03T05:26:48.949Z,52.22949219
2022-09-03T05:27:46.792Z,52.41210938
2022-09-03T05:28:48.397Z,51.74609375
2022-09-03T05:29:47.873Z,52.36132813
2022-09-03T05:30:47.925Z,52.15820313
2022-09-03T05:31:50.302Z,52.21386719
2022-09-03T05:32:43.206Z,52.05273438
2022-09-03T05:33:49.236Z,52.24609375
2022-09-03T05:34:42.220Z,52.09765625
2022-09-03T05:36:42.761Z,52.6953125
2022-09-03T05:37:38.160Z,52.43066406
2022-09-03T05:38:41.638Z,53.10742188
2022-09-03T05:39:36.003Z,52.58105469
2022-09-03T05:40:35.091Z,52.82421875
2022-09-03T05:41:32.203Z,52.94042969
2022-09-03T05:42:36.341Z,52.99707031
2022-09-03T05:43:31.633Z,53.04296875
2022-09-03T05:44:34.327Z,52.734375
2022-09-03T05:46:27.776Z,52.83105469
2022-09-03T05:47:26.839Z,53.02734375
2022-09-03T05:48:29.953Z,52.99121094
2022-09-03T05:49:28.490Z,52.61328125
2022-09-03T05:50:31.246Z,52.56835938
2022-09-03T05:51:29.907Z,53.23339844
2022-09-03T05:52:27.957Z,53.16308594
2022-09-03T05:53:29.839Z,52.61425781
2022-09-03T05:54:25.306Z,51.67480469
2022-09-03T05:55:29.078Z,51.609375
2022-09-03T05:56:23.172Z,52.37988281
2022-09-03T05:57:26.703Z,51.84277344
2022-09-03T05:58:19.410Z,52.29296875
2022-09-03T05:59:19.917Z,51.65234375
2022-09-03T06:00:15.215Z,51.48046875
2022-09-03T06:01:18.230Z,52.125
2022-09-03T06:02:13.684Z,52.42480469
2022-09-03T06:03:18.001Z,51.68066406
2022-09-03T06:04:15.345Z,51.29199219
2022-09-03T06:05:15.303Z,50.91601563
2022-09-03T06:06:13.730Z,51.3203125
2022-09-03T06:07:56.663Z,51.61425781
2022-09-03T06:08:36.404Z,51.1875
2022-09-03T06:09:33.808Z,50.42675781
2022-09-03T06:10:36.545Z,50.63476563
2022-09-03T06:10:40.850Z,50.63476563
2022-09-03T06:10:41.290Z,50.63476563
2022-09-03T06:11:28.403Z,50.453125
2022-09-03T06:12:27.741Z,50.83398438
2022-09-03T06:13:24.069Z,50.59472656
2022-09-03T06:14:23.627Z,50.02050781
2022-09-03T06:15:19.525Z,49.54980469
2022-09-03T06:16:18.809Z,50.54980469
2022-09-03T06:16:27.193Z,50.54980469
2022-09-03T06:16:31.812Z,50.54980469
2022-09-03T06:17:18.388Z,49.90820313
2022-09-03T06:18:15.322Z,50.19921875
2022-09-03T06:19:14.472Z,50.53417969
2022-09-03T06:20:09.714Z,49.78710938
2022-09-03T06:21:11.557Z,50.67382813
2022-09-03T06:22:06.658Z,50.14355469
2022-09-03T06:23:01.192Z,50.83496094
2022-09-03T06:24:02.832Z,50.47167969
2022-09-03T06:25:02.835Z,50.97460938
2022-09-03T06:26:58.576Z,49.79296875
2022-09-03T06:27:53.773Z,49.921875
2022-09-03T06:28:53.608Z,49.85546875
2022-09-03T06:29:51.728Z,50.109375
2022-09-03T06:30:50.158Z,49.671875
2022-09-03T06:31:49.378Z,49.84472656
2022-09-03T06:32:45.425Z,50.48925781
2022-09-03T06:33:42.158Z,50.203125
2022-09-03T06:34:42.194Z,50.23730469
2022-09-03T06:35:42.900Z,51.36425781
2022-09-03T06:35:42.978Z,51.36425781
2022-09-03T06:36:39.500Z,50.31152344
2022-09-03T06:37:37.151Z,50.00585938
2022-09-03T06:38:31.699Z,50.53710938
2022-09-03T06:39:32.492Z,50.29980469
2022-09-03T06:40:25.945Z,50.14160156
2022-09-03T06:41:22.026Z,51.1328125
2022-09-03T06:43:07.991Z,50.80761719
2022-09-03T06:43:47.468Z,51.30664063
2022-09-03T06:44:47.477Z,49.56933594
2022-09-03T06:45:46.644Z,51.00585938
2022-09-03T06:46:41.979Z,50.59179688
2022-09-03T06:47:42.107Z,50.99121094
2022-09-03T06:48:36.758Z,51.06054688
2022-09-03T06:49:36.442Z,50.88769531
2022-09-03T06:51:30.747Z,51.26074219
2022-09-03T06:52:27.055Z,50.11230469
2022-09-03T06:53:26.100Z,49.82617188
2022-09-03T06:53:32.180Z,49.82617188
2022-09-03T06:54:21.495Z,49.66699219
2022-09-03T06:55:20.849Z,50.74902344
2022-09-03T06:56:15.735Z,50.79882813
2022-09-03T06:57:15.353Z,50.27050781
2022-09-03T06:58:10.886Z,50.14648438
2022-09-03T06:59:08.524Z,50.078125
2022-09-03T07:00:07.893Z,50.22753906
2022-09-03T07:02:01.446Z,51.38183594
2022-09-03T07:03:00.392Z,50.62109375
2022-09-03T07:03:55.282Z,50.39355469
2022-09-03T07:04:53.782Z,50.08398438
2022-09-03T07:05:53.330Z,50.38964844
2022-09-03T07:06:48.438Z,50.2421875
2022-09-03T07:07:50.912Z,50.53417969
2022-09-03T07:08:43.334Z,51.05761719
2022-09-03T07:09:48.320Z,49.58886719
2022-09-03T07:11:36.515Z,50.46582031
2022-09-03T07:12:39.447Z,50.21875
2022-09-03T07:13:33.825Z,49.62695313
2022-09-03T07:14:32.959Z,49.38183594
2022-09-03T07:16:30.347Z,49.94335938
2022-09-03T07:17:26.188Z,49.87988281
2022-09-03T07:18:53.097Z,49.25390625
2022-09-03T07:19:31.381Z,49.79101563
2022-09-03T07:21:28.654Z,50.02539063
2022-09-03T07:22:31.294Z,50.30664063
2022-09-03T07:23:28.366Z,49.24804688
2022-09-03T07:24:24.470Z,49.91113281
2022-09-03T07:25:28.401Z,49.4765625
2022-09-03T07:27:22.854Z,49.25292969
2022-09-03T07:28:19.395Z,48.81933594
2022-09-03T07:29:21.226Z,48.73046875
2022-09-03T07:30:17.057Z,48.46777344
2022-09-03T07:32:15.252Z,48.09960938
2022-09-03T07:33:15.789Z,48.6796875
2022-09-03T07:34:12.978Z,48.5703125
2022-09-03T07:35:16.251Z,49.1875
2022-09-03T07:37:14.406Z,48.71289063
2022-09-03T07:38:08.911Z,48.96289063
2022-09-03T07:39:09.935Z,47.85742188
2022-09-03T07:40:06.534Z,48.17382813
2022-09-03T07:41:05.353Z,48.69433594
2022-09-03T07:42:06.892Z,47.69335938
2022-09-03T07:43:03.655Z,47.515625
2022-09-03T07:44:05.170Z,47.49707031
2022-09-03T07:45:01.930Z,47.22167969
2022-09-03T07:46:03.849Z,47.14550781
2022-09-03T07:47:00.912Z,47.0234375
2022-09-03T07:48:02.395Z,46.87988281
2022-09-03T07:48:59.669Z,45.64648438
2022-09-03T07:50:03.590Z,46.06933594
2022-09-03T07:50:57.911Z,45.56347656
2022-09-03T07:51:59.647Z,46.06640625
2022-09-03T07:52:56.793Z,45.67773438
2022-09-03T07:53:58.301Z,45.6953125
2022-09-03T07:54:55.141Z,45.14453125
2022-09-03T07:56:54.072Z,45.09570313
2022-09-03T07:57:56.549Z,44.65039063
2022-09-03T07:58:54.427Z,45.22460938
2022-09-03T07:59:55.366Z,44.21875
2022-09-03T08:00:53.512Z,43.734375
2022-09-03T08:01:57.683Z,43.66894531
2022-09-03T08:02:52.283Z,44.0703125
2022-09-03T08:03:54.622Z,45.31640625
2022-09-03T08:04:52.897Z,44.60546875
2022-09-03T08:05:53.909Z,44.52734375
2022-09-03T08:06:52.207Z,44.97460938
2022-09-03T08:08:31.272Z,43.75683594
2022-09-03T08:08:35.628Z,43.75683594
2022-09-03T08:09:10.938Z,43.98828125
2022-09-03T08:10:09.245Z,43.0859375
2022-09-03T08:12:05.631Z,42.74511719
2022-09-03T08:13:06.576Z,42.50488281
2022-09-03T08:14:02.303Z,43.08789063
2022-09-03T08:15:03.005Z,42.67285156
2022-09-03T08:16:59.545Z,42.15722656
2022-09-03T08:17:55.763Z,42.69628906
2022-09-03T08:18:03.743Z,42.69628906
2022-09-03T08:18:05.990Z,42.69628906
2022-09-03T08:18:56.918Z,43.0859375
2022-09-03T08:19:53.890Z,43.6953125
2022-09-03T08:21:50.322Z,43.38769531
2022-09-03T08:22:51.168Z,42.82421875
2022-09-03T08:23:47.501Z,41.54980469
2022-09-03T08:24:48.370Z,41.76367188
2022-09-03T08:26:51.378Z,42.49121094
2022-09-03T08:26:52.397Z,42.49121094
2022-09-03T08:27:44.715Z,41.84667969
2022-09-03T08:28:41.243Z,42.0625
2022-09-03T08:29:42.540Z,41.83105469
2022-09-03T08:30:39.289Z,42.22753906
2022-09-03T08:31:40.457Z,42.67578125
2022-09-03T08:32:37.586Z,42.62207031
2022-09-03T08:33:38.337Z,40.99707031
2022-09-03T08:34:34.928Z,41.47851563
2022-09-03T08:35:36.448Z,41.25976563
2022-09-03T08:35:57.677Z,41.14453125
2022-09-03T08:36:57.065Z,40.58203125
2022-09-03T08:37:58.614Z,40.26953125
2022-09-03T08:38:55.300Z,40.2734375
2022-09-03T08:39:57.239Z,40.32421875
2022-09-03T08:40:53.876Z,40.19433594
2022-09-03T08:41:55.560Z,41.06347656
2022-09-03T08:42:52.316Z,40.25
2022-09-03T08:43:53.974Z,40.9765625
2022-09-03T08:44:51.259Z,40.74609375
2022-09-03T08:46:49.080Z,40.90234375
2022-09-03T08:47:50.551Z,39.59960938
2022-09-03T08:48:47.231Z,40.39746094
2022-09-03T08:49:49.437Z,40.23828125
2022-09-03T08:51:47.625Z,39.79882813
2022-09-03T08:52:44.871Z,39.34570313
2022-09-03T08:53:45.867Z,39.34570313
2022-09-03T08:54:42.863Z,39.54492188
2022-09-03T08:56:40.753Z,39.8359375
2022-09-03T08:58:16.083Z,40.00976563
2022-09-03T09:00:32.712Z,39.9921875
2022-09-03T09:02:14.211Z,39.45605469
2022-09-03T09:03:10.448Z,39.53710938
2022-09-03T09:04:11.310Z,38.92578125
2022-09-03T09:05:11.141Z,39.26464844
2022-09-03T09:05:14.307Z,39.26464844
2022-09-03T09:07:05.139Z,39.89550781
2022-09-03T09:08:05.772Z,39.63964844
2022-09-03T09:09:01.701Z,40.40917969
2022-09-03T09:10:02.701Z,40.16503906
2022-09-03T09:11:59.432Z,40.36132813
2022-09-03T09:12:57.789Z,39.53515625
2022-09-03T09:13:53.973Z,39.33300781
2022-09-03T09:14:55.187Z,39.11328125
2022-09-03T09:16:51.709Z,38.67675781
2022-09-03T09:17:48.014Z,38.38769531
2022-09-03T09:18:48.448Z,38.828125
2022-09-03T09:19:44.090Z,38.59863281
2022-09-03T09:20:47.337Z,39.07324219
2022-09-03T09:21:41.712Z,38.97167969
2022-09-03T09:22:41.483Z,38.91699219
2022-09-03T09:23:37.431Z,39.43359375
2022-09-03T09:24:38.274Z,40.34765625
2022-09-03T09:25:34.448Z,40.3359375
2022-09-03T09:27:33.581Z,40.08789063
2022-09-03T09:28:29.555Z,38.46484375
2022-09-03T09:29:33.038Z,39.38964844
2022-09-03T09:30:26.512Z,41.85058594
2022-09-03T09:32:23.235Z,39.7890625
2022-09-03T09:33:26.674Z,38.92285156
2022-09-03T09:34:20.590Z,39.15625
2022-09-03T09:35:20.817Z,38.69824219
2022-09-03T09:37:16.623Z,39.5625
2022-09-03T09:38:46.515Z,39.05859375
2022-09-03T09:39:21.128Z,39.51464844
2022-09-03T09:40:19.193Z,39.19824219
2022-09-03T09:41:19.473Z,39.26464844
2022-09-03T09:42:14.614Z,40.9296875
2022-09-03T09:43:15.312Z,40.984375
2022-09-03T09:44:10.870Z,39.10058594
2022-09-03T09:44:15.896Z,39.10058594
2022-09-03T09:45:10.841Z,39.14355469
2022-09-03T09:47:06.250Z,39.72265625
2022-09-03T09:48:01.739Z,39.71777344
2022-09-03T09:49:04.320Z,40.03027344
2022-09-03T09:49:56.961Z,39.87597656
2022-09-03T09:50:59.957Z,40.03710938
2022-09-03T09:51:52.508Z,40.10351563
2022-09-03T09:52:52.280Z,40.40527344
2022-09-03T09:53:50.442Z,40.93945313
2022-09-03T09:54:47.404Z,41.47363281
2022-09-03T09:55:47.083Z,40.06152344
2022-09-03T09:57:42.161Z,41.5859375
2022-09-03T09:58:37.766Z,40.29003906
2022-09-03T09:59:37.783Z,40.95214844
2022-09-03T10:00:33.138Z,41.09082031
2022-09-03T10:02:28.157Z,42.38183594
2022-09-03T10:03:30.134Z,42.22851563
2022-09-03T10:04:22.922Z,42.40234375
2022-09-03T10:05:25.393Z,40.80664063
2022-09-03T10:07:20.722Z,43.44824219
2022-09-03T10:08:14.130Z,44.62304688
2022-09-03T10:09:14.515Z,43.00488281
2022-09-03T10:10:15.152Z,43.13183594
2022-09-03T10:11:08.594Z,43.02636719
2022-09-03T10:12:08.413Z,43.33007813
2022-09-03T10:13:03.958Z,42.93554688
2022-09-03T10:14:07.395Z,42.17089844
2022-09-03T10:15:00.670Z,41.20898438
2022-09-03T10:17:01.671Z,42.83203125
2022-09-03T10:17:54.699Z,43.56640625
2022-09-03T10:18:57.680Z,40.92382813
2022-09-03T10:19:50.898Z,42.07714844
2022-09-03T10:21:46.763Z,41.14355469
2022-09-03T10:23:23.884Z,41.60351563
2022-09-03T10:24:07.291Z,41.23535156
2022-09-03T10:25:03.186Z,42.01855469
2022-09-03T10:26:58.373Z,41.64355469
2022-09-03T10:28:00.598Z,40.5078125
2022-09-03T10:28:56.841Z,40.54296875
2022-09-03T10:29:53.587Z,40.04394531
2022-09-03T10:30:49.069Z,39.86621094
2022-09-03T10:31:51.662Z,39.64355469
2022-09-03T10:32:48.584Z,39.87695313
2022-09-03T10:33:49.282Z,39.43359375
2022-09-03T10:34:42.653Z,40.21386719
2022-09-03T10:35:45.379Z,40.06152344
2022-09-03T10:36:37.991Z,40.08398438
2022-09-03T10:37:35.457Z,39.96679688
2022-09-03T10:38:34.929Z,40.42089844
2022-09-03T10:39:30.234Z,40.14160156
2022-09-03T10:40:27.669Z,39.91992188
2022-09-03T10:42:22.546Z,40.32714844
2022-09-03T10:43:23.205Z,41.38769531
2022-09-03T10:44:18.866Z,41.23632813
2022-09-03T10:45:18.471Z,41.76757813
2022-09-03T10:47:13.158Z,41.81835938
2022-09-03T10:48:08.280Z,41.69433594
2022-09-03T10:49:10.328Z,41.76464844
2022-09-03T10:50:02.750Z,40.62304688
2022-09-03T10:51:58.454Z,41.53320313
2022-09-03T10:53:00.251Z,40.95019531
2022-09-03T10:53:54.374Z,40.79980469
2022-09-03T10:54:55.881Z,40.625
2022-09-03T10:55:48.337Z,40.71679688
2022-09-03T10:57:46.953Z,40.58300781
2022-09-03T10:58:28.225Z,41.203125
2022-09-03T10:59:30.170Z,41.34277344
2022-09-03T11:00:26.650Z,41.24902344
2022-09-03T11:02:27.813Z,41.93066406
2022-09-03T11:03:30.197Z,43.92382813
2022-09-03T11:04:26.787Z,43.08789063
2022-09-03T11:05:28.122Z,42.49121094
2022-09-03T11:06:25.210Z,41.83691406
2022-09-03T11:07:26.417Z,42.15039063
2022-09-03T11:08:25.498Z,41.87011719
2022-09-03T11:09:23.268Z,42.66210938
2022-09-03T11:10:24.749Z,42.59179688
2022-09-03T11:10:30.868Z,42.59179688
2022-09-03T11:12:22.587Z,43.72363281
2022-09-03T11:13:25.858Z,43.07128906
2022-09-03T11:14:20.534Z,42.5703125
2022-09-03T11:15:27.706Z,42.31445313
2022-09-03T11:17:18.272Z,41.99023438
2022-09-03T11:18:19.783Z,42.26757813
2022-09-03T11:19:17.821Z,42.99121094
2022-09-03T11:20:18.115Z,41.81054688
2022-09-03T11:22:20.729Z,41.87890625
2022-09-03T11:23:17.641Z,41.99414063
2022-09-03T11:24:15.033Z,42.66113281
2022-09-03T11:25:11.533Z,41.63671875